createdAt,value
2018-08-02T00:00:04.789Z,31
2018-08-02T00:02:08.000Z,31
2018-08-02T00:04:04.624Z,31
2018-08-02T00:06:07.840Z,31
2018-08-02T00:08:05.097Z,31
2018-08-02T00:10:05.331Z,31
2018-08-02T00:12:05.065Z,31
2018-08-02T00:14:07.368Z,31
2018-08-02T00:16:07.543Z,31
2018-08-02T00:18:05.472Z,31
2018-08-02T00:20:05.127Z,31
2018-08-02T00:22:04.825Z,31
2018-08-02T00:24:10.570Z,31
2018-08-02T00:26:10.305Z,31
2018-08-02T00:28:07.528Z,31
2018-08-02T00:30:07.755Z,31
2018-08-02T00:32:05.438Z,31
2018-08-02T00:34:05.132Z,30.9
2018-08-02T00:36:04.796Z,30.9
2018-08-02T00:38:08.078Z,31
2018-08-02T00:40:07.356Z,31
2018-08-02T00:42:05.087Z,30.9
2018-08-02T00:44:07.336Z,31
2018-08-02T00:46:05.566Z,31
2018-08-02T00:48:05.266Z,31
2018-08-02T00:50:08.025Z,31
2018-08-02T00:52:04.752Z,30.9
2018-08-02T00:54:04.928Z,31
2018-08-02T00:56:05.142Z,31
2018-08-02T00:58:04.868Z,31
2018-08-02T01:00:05.303Z,31
2018-08-02T01:02:05.045Z,31
2018-08-02T01:04:04.716Z,31
2018-08-02T01:06:05.401Z,30.9
2018-08-02T01:08:07.643Z,31
2018-08-02T01:10:05.392Z,31
2018-08-02T01:12:07.597Z,31
2018-08-02T01:14:05.328Z,30.9
2018-08-02T01:16:05.031Z,30.9
2018-08-02T01:18:05.518Z,30.9
2018-08-02T01:20:05.265Z,30.9
2018-08-02T01:22:10.036Z,30.9
2018-08-02T01:24:07.256Z,30.9
2018-08-02T01:26:10.046Z,30.8
2018-08-02T01:28:05.253Z,30.8
2018-08-02T01:30:04.955Z,30.9
2018-08-02T01:32:04.743Z,30.9
2018-08-02T01:34:05.458Z,30.9
2018-08-02T01:36:05.160Z,30.9
2018-08-02T01:38:09.922Z,30.9
2018-08-02T01:40:09.801Z,30.8
2018-08-02T01:42:05.469Z,30.8
2018-08-02T01:44:04.793Z,30.8
2018-08-02T01:46:08.023Z,30.8
2018-08-02T01:48:12.287Z,30.8
2018-08-02T01:50:10.558Z,30.8
2018-08-02T01:52:04.751Z,30.8
2018-08-02T01:54:08.110Z,30.8
2018-08-02T01:56:07.297Z,30.8
2018-08-02T01:58:04.959Z,30.8
2018-08-02T02:00:04.654Z,30.8
2018-08-02T02:02:05.408Z,30.8
2018-08-02T02:04:05.121Z,30.7
2018-08-02T02:06:12.425Z,30.8
2018-08-02T02:08:09.725Z,30.8
2018-08-02T02:10:05.414Z,30.8
2018-08-02T02:12:05.228Z,30.7
2018-08-02T02:14:04.956Z,30.7
2018-08-02T02:16:05.182Z,30.7
2018-08-02T02:18:05.054Z,30.7
2018-08-02T02:20:07.271Z,30.7
2018-08-02T02:22:05.495Z,30.7
2018-08-02T02:24:05.171Z,30.7
2018-08-02T02:26:07.417Z,30.7
2018-08-02T02:28:05.126Z,30.7
2018-08-02T02:30:07.861Z,30.7
2018-08-02T02:32:05.597Z,30.7
2018-08-02T02:34:05.329Z,30.7
2018-08-02T02:36:07.570Z,30.7
2018-08-02T02:38:05.303Z,30.7
2018-08-02T02:40:07.563Z,30.7
2018-08-02T02:42:04.797Z,30.6
2018-08-02T02:44:10.555Z,30.6
2018-08-02T02:46:07.525Z,30.6
2018-08-02T02:48:07.432Z,30.7
2018-08-02T02:50:04.677Z,30.7
2018-08-02T02:52:05.436Z,30.6
2018-08-02T02:54:05.152Z,30.6
2018-08-02T02:56:04.844Z,30.6
2018-08-02T02:58:05.515Z,30.6
2018-08-02T03:00:07.740Z,30.6
2018-08-02T03:02:04.964Z,30.6
2018-08-02T03:04:09.708Z,30.6
2018-08-02T03:06:05.423Z,30.6
2018-08-02T03:08:12.357Z,30.6
2018-08-02T03:10:07.562Z,30.6
2018-08-02T03:12:05.315Z,30.6
2018-08-02T03:14:05.060Z,30.6
2018-08-02T03:16:04.930Z,30.6
2018-08-02T03:18:07.385Z,30.6
2018-08-02T03:20:05.059Z,30.6
2018-08-02T03:22:04.761Z,30.6
2018-08-02T03:24:04.989Z,30.6
2018-08-02T03:26:04.676Z,30.6
2018-08-02T03:28:05.371Z,30.6
2018-08-02T03:30:07.527Z,30.6
2018-08-02T03:32:04.837Z,30.6
2018-08-02T03:34:05.525Z,30.6
2018-08-02T03:36:07.742Z,30.6
2018-08-02T03:38:05.458Z,30.6
2018-08-02T03:40:05.151Z,30.6
2018-08-02T03:42:04.879Z,30.6
2018-08-02T03:44:05.636Z,30.6
2018-08-02T03:46:05.152Z,30.6
2018-08-02T03:48:07.361Z,30.6
2018-08-02T03:50:05.076Z,30.6
2018-08-02T03:52:07.277Z,30.6
2018-08-02T03:54:07.509Z,30.6
2018-08-02T03:56:05.199Z,30.5
2018-08-02T03:58:05.364Z,30.5
2018-08-02T04:00:04.816Z,30.6
2018-08-02T04:02:05.032Z,30.6
2018-08-02T04:04:05.264Z,30.6
2018-08-02T04:06:04.958Z,30.5
2018-08-02T04:08:05.220Z,30.6
2018-08-02T04:10:05.419Z,30.5
2018-08-02T04:12:04.646Z,30.5
2018-08-02T04:14:05.356Z,30.5
2018-08-02T04:16:05.041Z,30.5
2018-08-02T04:18:04.917Z,30.6
2018-08-02T04:20:05.161Z,30.5
2018-08-02T04:22:04.852Z,30.5
2018-08-02T04:24:05.535Z,30.5
2018-08-02T04:26:05.310Z,30.5
2018-08-02T04:28:07.599Z,30.5
2018-08-02T04:30:05.346Z,30.5
2018-08-02T04:32:05.065Z,30.5
2018-08-02T04:34:04.798Z,30.5
2018-08-02T04:36:05.525Z,30.5
2018-08-02T04:38:05.267Z,30.5
2018-08-02T04:40:08.026Z,30.5
2018-08-02T04:42:04.913Z,30.5
2018-08-02T04:44:04.901Z,30.5
2018-08-02T04:46:05.596Z,30.5
2018-08-02T04:48:10.882Z,30.5
2018-08-02T04:50:08.168Z,30.5
2018-08-02T04:52:04.935Z,30.5
2018-08-02T04:54:05.106Z,30.5
2018-08-02T04:56:04.899Z,30.6
2018-08-02T04:58:05.162Z,30.5
2018-08-02T05:00:07.484Z,30.6
2018-08-02T05:02:07.762Z,30.6
2018-08-02T05:04:05.510Z,30.6
2018-08-02T05:06:05.187Z,30.6
2018-08-02T05:08:04.948Z,30.6
2018-08-02T05:10:07.530Z,30.6
2018-08-02T05:12:12.818Z,30.6
2018-08-02T05:14:05.561Z,30.6
2018-08-02T05:16:05.312Z,30.6
2018-08-02T05:18:07.737Z,30.6
2018-08-02T05:20:05.520Z,30.6
2018-08-02T05:22:05.281Z,30.6
2018-08-02T05:24:05.199Z,30.7
2018-08-02T05:26:07.434Z,30.7
2018-08-02T05:28:07.740Z,30.7
2018-08-02T05:30:05.499Z,30.7
2018-08-02T05:32:10.233Z,30.7
2018-08-02T05:34:04.921Z,30.7
2018-08-02T05:36:05.062Z,30.7
2018-08-02T05:38:05.344Z,30.7
2018-08-02T05:40:05.046Z,30.7
2018-08-02T05:42:07.234Z,30.7
2018-08-02T05:44:04.886Z,30.7
2018-08-02T05:46:05.591Z,30.7
2018-08-02T05:48:05.258Z,30.7
2018-08-02T05:50:05.439Z,30.7
2018-08-02T05:52:10.241Z,30.8
2018-08-02T05:54:05.539Z,30.8
2018-08-02T05:56:05.234Z,30.8
2018-08-02T05:58:05.041Z,30.8
2018-08-02T06:00:04.804Z,30.8
2018-08-02T06:02:05.500Z,30.8
2018-08-02T06:04:04.806Z,30.8
2018-08-02T06:06:08.031Z,30.9
2018-08-02T06:08:10.273Z,30.9
2018-08-02T06:10:04.990Z,30.8
2018-08-02T06:12:07.202Z,30.9
2018-08-02T06:14:07.420Z,30.9
2018-08-02T06:16:05.169Z,30.9
2018-08-02T06:18:07.610Z,30.9
2018-08-02T06:20:05.265Z,30.9
2018-08-02T06:22:10.014Z,30.9
2018-08-02T06:24:04.758Z,30.9
2018-08-02T06:26:07.166Z,31
2018-08-02T06:28:04.822Z,31
2018-08-02T06:30:05.522Z,31
2018-08-02T06:32:05.207Z,31
2018-08-02T06:34:04.922Z,31
2018-08-02T06:36:05.664Z,31
2018-08-02T06:38:05.382Z,31
2018-08-02T06:40:04.940Z,31
2018-08-02T06:42:05.653Z,31
2018-08-02T06:44:12.941Z,31.1
2018-08-02T06:46:05.228Z,31.1
2018-08-02T06:48:07.428Z,31.1
2018-08-02T06:50:05.118Z,31.1
2018-08-02T06:52:07.327Z,31.2
2018-08-02T06:54:05.548Z,31.2
2018-08-02T06:56:07.309Z,31.2
2018-08-02T06:58:04.967Z,31.1
2018-08-02T07:00:04.708Z,31.1
2018-08-02T07:02:05.425Z,31.2
2018-08-02T07:04:07.632Z,31.2
2018-08-02T07:06:07.860Z,31.2
2018-08-02T07:08:09.859Z,31.2
2018-08-02T07:10:05.616Z,31.2
2018-08-02T07:12:05.311Z,31.3
2018-08-02T07:14:04.971Z,31.3
2018-08-02T07:16:04.683Z,31.3
2018-08-02T07:18:05.717Z,31.3
2018-08-02T07:20:05.566Z,31.4
2018-08-02T07:22:05.226Z,31.4
2018-08-02T07:24:04.889Z,31.5
2018-08-02T07:26:04.703Z,31.5
2018-08-02T07:28:05.410Z,31.5
2018-08-02T07:30:05.158Z,31.5
2018-08-02T07:32:13.241Z,31.6
2018-08-02T07:34:10.100Z,31.6
2018-08-02T07:36:04.990Z,31.6
2018-08-02T07:38:04.673Z,31.6
2018-08-02T07:40:05.424Z,31.7
2018-08-02T07:42:05.316Z,31.7
2018-08-02T07:44:04.976Z,31.7
2018-08-02T07:46:05.026Z,31.7
2018-08-02T07:48:07.269Z,31.8
2018-08-02T07:50:05.643Z,31.8
2018-08-02T07:52:05.405Z,31.8
2018-08-02T07:54:04.690Z,31.8
2018-08-02T07:56:08.042Z,31.8
2018-08-02T07:58:04.995Z,31.8
2018-08-02T08:00:04.723Z,31.8
2018-08-02T08:02:05.469Z,31.8
2018-08-02T08:04:05.331Z,31.8
2018-08-02T08:06:05.518Z,31.8
2018-08-02T08:08:05.187Z,31.8
2018-08-02T08:10:05.526Z,31.9
2018-08-02T08:12:05.232Z,31.9
2018-08-02T08:14:07.985Z,31.9
2018-08-02T08:16:07.338Z,32
2018-08-02T08:18:05.561Z,32
2018-08-02T08:20:05.281Z,32
2018-08-02T08:22:04.997Z,32
2018-08-02T08:24:04.710Z,32
2018-08-02T08:26:05.362Z,32
2018-08-02T08:28:05.223Z,32
2018-08-02T08:30:04.953Z,32
2018-08-02T08:32:04.766Z,32.1
2018-08-02T08:34:05.038Z,32.1
2018-08-02T08:36:04.921Z,32.1
2018-08-02T08:38:05.151Z,32.2
2018-08-02T08:40:05.440Z,32.2
2018-08-02T08:42:05.179Z,32.2
2018-08-02T08:44:04.835Z,32.1
2018-08-02T08:46:05.592Z,32.1
2018-08-02T08:48:15.449Z,32.1
2018-08-02T08:50:12.771Z,32.1
2018-08-02T08:52:08.052Z,32.1
2018-08-02T08:54:04.853Z,32.1
2018-08-02T08:56:05.624Z,32.2
2018-08-02T08:58:07.857Z,32.2
2018-08-02T09:00:05.563Z,32.2
2018-08-02T09:02:05.198Z,32.1
2018-08-02T09:04:04.883Z,32
2018-08-02T09:06:08.132Z,32
2018-08-02T09:08:07.874Z,31.9
2018-08-02T09:10:05.561Z,31.9
2018-08-02T09:12:07.507Z,31.9
2018-08-02T09:14:05.193Z,31.9
2018-08-02T09:16:04.953Z,31.9
2018-08-02T09:18:05.179Z,31.9
2018-08-02T09:20:04.863Z,31.9
2018-08-02T09:22:05.186Z,31.9
2018-08-02T09:24:04.922Z,31.8
2018-08-02T09:26:05.601Z,31.9
2018-08-02T09:28:05.353Z,31.9
2018-08-02T09:30:05.162Z,31.8
2018-08-02T09:32:05.423Z,31.7
2018-08-02T09:34:10.689Z,31.8
2018-08-02T09:36:05.431Z,31.7
2018-08-02T09:38:05.164Z,31.7
2018-08-02T09:40:04.830Z,31.8
2018-08-02T09:42:05.611Z,31.8
2018-08-02T09:44:05.317Z,31.8
2018-08-02T09:46:07.528Z,31.7
2018-08-02T09:48:05.248Z,31.7
2018-08-02T09:50:04.911Z,31.7
2018-08-02T09:52:05.569Z,31.7
2018-08-02T09:54:05.235Z,31.7
2018-08-02T09:56:04.899Z,31.7
2018-08-02T09:58:05.590Z,31.7
2018-08-02T10:00:05.274Z,31.7
2018-08-02T10:02:05.454Z,31.7
2018-08-02T10:04:05.100Z,31.7
2018-08-02T10:06:05.094Z,31.7
2018-08-02T10:08:07.312Z,31.5
2018-08-02T10:10:07.557Z,31.4
2018-08-02T10:12:05.268Z,31.4
2018-08-02T10:14:05.104Z,31.4
2018-08-02T10:16:04.887Z,31.4
2018-08-02T10:18:05.113Z,31.5
2018-08-02T10:20:05.488Z,31.5
2018-08-02T10:22:07.729Z,31.3
2018-08-02T10:24:05.442Z,31.2
2018-08-02T10:26:05.134Z,31.4
2018-08-02T10:28:05.293Z,31.4
2018-08-02T10:30:05.049Z,31.4
2018-08-02T10:32:04.911Z,31.3
2018-08-02T10:34:05.760Z,31.3
2018-08-02T10:36:05.505Z,31.3
2018-08-02T10:38:05.222Z,31.1
2018-08-02T10:40:05.567Z,31.2
2018-08-02T10:42:05.246Z,31.2
2018-08-02T10:44:04.973Z,31.3
2018-08-02T10:46:04.680Z,31.2
2018-08-02T10:48:05.484Z,31.2
2018-08-02T10:50:07.677Z,31.1
2018-08-02T10:52:10.424Z,30.9
2018-08-02T10:54:05.102Z,30.9
2018-08-02T10:56:09.856Z,31.1
2018-08-02T10:58:04.860Z,31.1
2018-08-02T11:00:05.590Z,31
2018-08-02T11:02:05.272Z,30.9
2018-08-02T11:04:04.632Z,30.9
2018-08-02T11:06:04.834Z,31
2018-08-02T11:08:08.084Z,31.2
2018-08-02T11:10:04.746Z,31.2
2018-08-02T11:12:05.040Z,31.2
2018-08-02T11:14:04.716Z,31.2
2018-08-02T11:16:05.395Z,31.2
2018-08-02T11:18:05.324Z,31.2
2018-08-02T11:20:05.049Z,31.2
2018-08-02T11:22:09.836Z,31
2018-08-02T11:24:13.170Z,31.1
2018-08-02T11:26:05.364Z,31.1
2018-08-02T11:28:05.040Z,31.1
2018-08-02T11:30:04.991Z,31
2018-08-02T11:32:05.293Z,31
2018-08-02T11:34:04.993Z,31
2018-08-02T11:36:07.228Z,31.1
2018-08-02T11:38:04.939Z,31.1
2018-08-02T11:40:04.684Z,31.2
2018-08-02T11:42:05.441Z,31.2
2018-08-02T11:44:05.189Z,31.3
2018-08-02T11:46:07.489Z,31.3
2018-08-02T11:48:05.255Z,31.3
2018-08-02T11:50:04.944Z,31.2
2018-08-02T11:52:05.591Z,31.2
2018-08-02T11:54:07.469Z,31.3
2018-08-02T11:56:05.147Z,31.2
2018-08-02T11:58:07.915Z,31.1
2018-08-02T12:00:05.584Z,31.1
2018-08-02T12:02:05.309Z,31.2
2018-08-02T12:04:05.245Z,31.3
2018-08-02T12:06:07.604Z,31.3
2018-08-02T12:08:04.804Z,31.3
2018-08-02T12:10:07.180Z,31.3
2018-08-02T12:12:07.461Z,31.4
2018-08-02T12:14:05.163Z,31.4
2018-08-02T12:16:04.915Z,31.4
2018-08-02T12:18:04.918Z,31.5
2018-08-02T12:20:05.586Z,31.4
2018-08-02T12:22:04.977Z,31.4
2018-08-02T12:24:04.902Z,31.4
2018-08-02T12:26:04.934Z,31.4
2018-08-02T12:28:09.931Z,31.4
2018-08-02T12:30:04.653Z,31.4
2018-08-02T12:32:05.314Z,31.4
2018-08-02T12:34:05.049Z,31.4
2018-08-02T12:36:04.744Z,31.5
2018-08-02T12:38:05.680Z,31.5
2018-08-02T12:40:13.112Z,31.4
2018-08-02T12:42:10.072Z,31.4
2018-08-02T12:44:04.844Z,31.4
2018-08-02T12:46:05.215Z,31.5
2018-08-02T12:48:05.266Z,31.5
2018-08-02T12:50:05.232Z,31.3
2018-08-02T12:52:05.163Z,31.3
2018-08-02T12:54:05.462Z,31.3
2018-08-02T12:56:05.400Z,31.3
2018-08-02T12:58:05.354Z,31.4
2018-08-02T13:00:05.010Z,31.4
2018-08-02T13:02:04.752Z,31.5
2018-08-02T13:04:04.729Z,31.5
2018-08-02T13:06:05.431Z,31.4
2018-08-02T13:08:04.855Z,31.4
2018-08-02T13:10:05.507Z,31.4
2018-08-02T13:12:12.710Z,31.4
2018-08-02T13:14:04.974Z,31.4
2018-08-02T13:16:07.226Z,31.5
2018-08-02T13:18:07.717Z,31.5
2018-08-02T13:20:04.943Z,31.5
2018-08-02T13:22:05.636Z,31.5
2018-08-02T13:24:10.409Z,31.5
2018-08-02T13:26:05.215Z,31.5
2018-08-02T13:28:04.988Z,31.5
2018-08-02T13:30:08.040Z,31.5
2018-08-02T13:32:04.726Z,31.5
2018-08-02T13:34:05.378Z,31.5
2018-08-02T13:36:05.067Z,31.5
2018-08-02T13:38:07.464Z,31.6
2018-08-02T13:40:07.935Z,31.6
2018-08-02T13:42:05.265Z,31.6
2018-08-02T13:44:05.343Z,31.7
2018-08-02T13:46:05.262Z,31.7
2018-08-02T13:48:04.974Z,31.6
2018-08-02T13:50:10.226Z,31.7
2018-08-02T13:52:04.945Z,31.7
2018-08-02T13:54:04.895Z,31.6
2018-08-02T13:56:04.592Z,31.5
2018-08-02T13:58:13.080Z,31.5
2018-08-02T14:00:07.421Z,31.6
2018-08-02T14:02:05.159Z,31.6
2018-08-02T14:04:05.362Z,31.7
2018-08-02T14:06:05.158Z,31.6
2018-08-02T14:08:05.069Z,31.6
2018-08-02T14:10:07.385Z,31.7
2018-08-02T14:12:12.652Z,31.6
2018-08-02T14:14:05.313Z,31.6
2018-08-02T14:16:05.066Z,31.5
2018-08-02T14:18:05.131Z,31.5
2018-08-02T14:20:04.882Z,31.6
2018-08-02T14:22:04.690Z,31.7
2018-08-02T14:24:10.539Z,31.7
2018-08-02T14:26:06.485Z,31.7
2018-08-02T14:28:05.181Z,31.7
2018-08-02T14:30:04.995Z,31.7
2018-08-02T14:32:04.923Z,31.7
2018-08-02T14:34:05.622Z,31.7
2018-08-02T14:36:05.315Z,31.6
2018-08-02T14:38:05.118Z,31.7
2018-08-02T14:40:04.835Z,31.7
2018-08-02T14:42:09.643Z,31.7
2018-08-02T14:44:05.596Z,31.7
2018-08-02T14:46:05.304Z,31.6
2018-08-02T14:48:04.990Z,31.6
2018-08-02T14:50:05.824Z,31.7
2018-08-02T14:52:05.608Z,31.7
2018-08-02T14:54:12.897Z,31.8
2018-08-02T14:56:04.771Z,31.7
2018-08-02T14:58:05.466Z,31.7
2018-08-02T15:00:05.173Z,31.6
2018-08-02T15:02:04.875Z,31.5
2018-08-02T15:04:08.154Z,31.5
2018-08-02T15:06:07.445Z,31.5
2018-08-02T15:08:05.408Z,31.5
2018-08-02T15:10:07.323Z,31.6
2018-08-02T15:12:07.529Z,31.6
2018-08-02T15:14:05.191Z,31.7
2018-08-02T15:16:05.347Z,31.6
2018-08-02T15:18:05.294Z,31.7
2018-08-02T15:20:07.537Z,31.7
2018-08-02T15:22:05.272Z,31.6
2018-08-02T15:24:07.999Z,31.7
2018-08-02T15:26:07.457Z,31.7
2018-08-02T15:28:05.207Z,31.7
2018-08-02T15:30:05.548Z,31.7
2018-08-02T15:32:04.798Z,31.6
2018-08-02T15:34:05.506Z,31.7
2018-08-02T15:36:07.760Z,31.7
2018-08-02T15:38:05.469Z,31.7
2018-08-02T15:40:04.738Z,31.8
2018-08-02T15:42:12.319Z,31.8
2018-08-02T15:44:07.523Z,31.9
2018-08-02T15:46:05.250Z,31.9
2018-08-02T15:48:10.084Z,31.8
2018-08-02T15:50:07.338Z,31.7
2018-08-02T15:52:09.741Z,31.7
2018-08-02T15:54:05.561Z,31.7
2018-08-02T15:56:12.907Z,31.6
2018-08-02T15:58:05.356Z,31.6
2018-08-02T16:00:05.072Z,31.7
2018-08-02T16:02:04.925Z,31.7
2018-08-02T16:04:04.625Z,31.8
2018-08-02T16:06:07.808Z,31.8
2018-08-02T16:08:05.504Z,31.8
2018-08-02T16:10:07.740Z,31.8
2018-08-02T16:12:05.494Z,31.8
2018-08-02T16:14:04.737Z,31.8
2018-08-02T16:16:05.472Z,31.8
2018-08-02T16:18:05.391Z,31.9
2018-08-02T16:20:05.054Z,31.8
2018-08-02T16:22:05.250Z,31.8
2018-08-02T16:24:04.982Z,31.8
2018-08-02T16:26:09.762Z,31.8
2018-08-02T16:28:05.530Z,31.8
2018-08-02T16:30:12.923Z,31.9
2018-08-02T16:32:05.515Z,31.9
2018-08-02T16:34:04.607Z,31.8
2018-08-02T16:36:07.823Z,31.8
2018-08-02T16:38:05.554Z,31.8
2018-08-02T16:40:05.459Z,31.9
2018-08-02T16:42:09.724Z,31.8
2018-08-02T16:44:05.371Z,31.8
2018-08-02T16:46:05.106Z,31.9
2018-08-02T16:48:07.362Z,32
2018-08-02T16:50:07.648Z,32
2018-08-02T16:52:05.321Z,32
2018-08-02T16:54:05.487Z,32.1
2018-08-02T16:56:04.695Z,32.1
2018-08-02T16:58:07.986Z,32.1
2018-08-02T17:00:04.705Z,32.1
2018-08-02T17:02:15.558Z,32.1
2018-08-02T17:04:12.808Z,32.1
2018-08-02T17:06:08.023Z,32.1
2018-08-02T17:08:07.271Z,32.2
2018-08-02T17:10:12.717Z,32.1
2018-08-02T17:12:07.943Z,32.2
2018-08-02T17:14:05.213Z,32.2
2018-08-02T17:16:05.525Z,32.2
2018-08-02T17:18:07.978Z,32.2
2018-08-02T17:20:04.642Z,32.2
2018-08-02T17:22:05.306Z,32.2
2018-08-02T17:24:05.005Z,32.2
2018-08-02T17:26:04.736Z,32.2
2018-08-02T17:28:10.562Z,32.3
2018-08-02T17:30:04.790Z,32.3
2018-08-02T17:32:08.044Z,32.3
2018-08-02T17:34:04.802Z,32.3
2018-08-02T17:36:05.515Z,32.3
2018-08-02T17:38:05.253Z,32.3
2018-08-02T17:40:05.039Z,32.3
2018-08-02T17:42:07.359Z,32.3
2018-08-02T17:44:10.111Z,32.3
2018-08-02T17:46:07.388Z,32.3
2018-08-02T17:48:05.042Z,32.3
2018-08-02T17:50:04.799Z,32.3
2018-08-02T17:52:09.987Z,32.2
2018-08-02T17:54:05.316Z,32.2
2018-08-02T17:56:05.351Z,32.3
2018-08-02T17:58:07.603Z,32.3
2018-08-02T18:00:07.803Z,32.3
2018-08-02T18:02:08.074Z,32.3
2018-08-02T18:04:07.344Z,32.3
2018-08-02T18:06:04.998Z,32.3
2018-08-02T18:08:04.719Z,32.3
2018-08-02T18:10:05.445Z,32.3
2018-08-02T18:12:05.172Z,32.3
2018-08-02T18:14:05.200Z,32.3
2018-08-02T18:16:04.906Z,32.3
2018-08-02T18:18:04.907Z,32.3
2018-08-02T18:20:05.602Z,32.3
2018-08-02T18:22:04.838Z,32.3
2018-08-02T18:24:05.493Z,32.3
2018-08-02T18:26:05.226Z,32.2
2018-08-02T18:28:04.968Z,32.3
2018-08-02T18:30:04.691Z,32.3
2018-08-02T18:32:05.439Z,32.3
2018-08-02T18:34:05.149Z,32.3
2018-08-02T18:36:05.333Z,32.3
2018-08-02T18:38:05.599Z,32.3
2018-08-02T18:40:07.403Z,32.3
2018-08-02T18:42:07.635Z,32.3
2018-08-02T18:44:04.900Z,32.3
2018-08-02T18:46:04.726Z,32.3
2018-08-02T18:48:05.001Z,32.3
2018-08-02T18:50:04.724Z,32.3
2018-08-02T18:52:07.957Z,32.3
2018-08-02T18:54:07.707Z,32.3
2018-08-02T18:56:05.449Z,32.3
2018-08-02T18:58:05.165Z,32.4
2018-08-02T19:00:05.380Z,32.3
2018-08-02T19:02:05.213Z,32.3
2018-08-02T19:04:07.463Z,32.3
2018-08-02T19:06:04.717Z,32.3
2018-08-02T19:08:05.417Z,32.3
2018-08-02T19:10:05.128Z,32.3
2018-08-02T19:12:04.852Z,32.3
2018-08-02T19:14:07.359Z,32.3
2018-08-02T19:16:05.606Z,32.2
2018-08-02T19:18:05.075Z,32.2
2018-08-02T19:20:04.766Z,32.2
2018-08-02T19:22:05.041Z,32.2
2018-08-02T19:24:04.870Z,32.2
2018-08-02T19:26:04.927Z,32.2
2018-08-02T19:28:05.632Z,32.2
2018-08-02T19:30:07.831Z,32.2
2018-08-02T19:32:05.548Z,32.1
2018-08-02T19:34:05.257Z,32.2
2018-08-02T19:36:04.999Z,32.2
2018-08-02T19:38:05.350Z,32.2
2018-08-02T19:40:05.088Z,32.1
2018-08-02T19:42:05.068Z,32.1
2018-08-02T19:44:04.784Z,32.1
2018-08-02T19:46:05.578Z,32.1
2018-08-02T19:48:07.220Z,32.1
2018-08-02T19:50:13.212Z,32.1
2018-08-02T19:52:05.062Z,32
2018-08-02T19:54:10.250Z,32
2018-08-02T19:56:04.969Z,32
2018-08-02T19:58:04.702Z,32
2018-08-02T20:00:07.967Z,32
2018-08-02T20:02:04.677Z,32
2018-08-02T20:04:04.935Z,32
2018-08-02T20:06:05.186Z,32
2018-08-02T20:08:07.438Z,32
2018-08-02T20:10:05.138Z,32
2018-08-02T20:12:04.796Z,32
2018-08-02T20:14:05.532Z,31.9
2018-08-02T20:16:05.372Z,31.9
2018-08-02T20:18:05.541Z,31.9
2018-08-02T20:20:07.979Z,31.9
2018-08-02T20:22:05.437Z,31.9
2018-08-02T20:24:04.952Z,31.9
2018-08-02T20:26:07.452Z,31.8
2018-08-02T20:28:05.237Z,31.8
2018-08-02T20:30:05.672Z,31.8
2018-08-02T20:32:05.425Z,31.8
2018-08-02T20:34:05.207Z,31.8
2018-08-02T20:36:05.566Z,31.8
2018-08-02T20:38:05.419Z,31.8
2018-08-02T20:40:07.709Z,31.8
2018-08-02T20:42:07.938Z,31.8
2018-08-02T20:44:05.450Z,31.8
2018-08-02T20:46:05.209Z,31.7
2018-08-02T20:48:07.428Z,31.7
2018-08-02T20:50:04.680Z,31.7
2018-08-02T20:52:07.964Z,31.7
2018-08-02T20:54:05.196Z,31.7
2018-08-02T20:56:04.990Z,31.7
2018-08-02T20:58:04.724Z,31.7
2018-08-02T21:00:05.420Z,31.7
2018-08-02T21:02:07.167Z,31.7
2018-08-02T21:04:07.458Z,31.6
2018-08-02T21:06:04.681Z,31.6
2018-08-02T21:08:05.425Z,31.5
2018-08-02T21:10:04.737Z,31.4
2018-08-02T21:12:07.959Z,31.2
2018-08-02T21:14:07.208Z,31.2
2018-08-02T21:16:04.905Z,31.2
2018-08-02T21:18:05.053Z,31.2
2018-08-02T21:20:05.413Z,31.1
2018-08-02T21:22:05.155Z,31
2018-08-02T21:24:04.881Z,31.1
2018-08-02T21:26:04.829Z,31
2018-08-02T21:28:05.673Z,31
2018-08-02T21:30:07.973Z,31
2018-08-02T21:32:04.736Z,31
2018-08-02T21:34:09.991Z,31
2018-08-02T21:36:04.692Z,30.9
2018-08-02T21:38:05.399Z,31
2018-08-02T21:40:04.665Z,31
2018-08-02T21:42:04.928Z,31
2018-08-02T21:44:08.187Z,31
2018-08-02T21:46:05.090Z,30.9
2018-08-02T21:48:04.887Z,31
2018-08-02T21:50:04.854Z,31
2018-08-02T21:52:10.633Z,31.1
2018-08-02T21:54:05.342Z,31.2
2018-08-02T21:56:05.090Z,31.2
2018-08-02T21:58:09.938Z,31.2
2018-08-02T22:00:04.777Z,31.2
2018-08-02T22:02:04.597Z,31.2
2018-08-02T22:04:05.574Z,31.3
2018-08-02T22:06:08.800Z,31.2
2018-08-02T22:08:05.525Z,31.3
2018-08-02T22:10:05.346Z,31.2
2018-08-02T22:12:05.561Z,31.3
2018-08-02T22:14:05.261Z,31.3
2018-08-02T22:16:04.996Z,31.3
2018-08-02T22:18:09.924Z,31.3
2018-08-02T22:20:04.691Z,31.3
2018-08-02T22:22:07.975Z,31.3
2018-08-02T22:24:04.768Z,31.2
2018-08-02T22:26:05.501Z,31.3
2018-08-02T22:28:07.744Z,31.2
2018-08-02T22:30:05.450Z,31.2
2018-08-02T22:32:04.769Z,31.2
2018-08-02T22:34:10.568Z,31.2
2018-08-02T22:36:04.746Z,31.2
2018-08-02T22:38:05.296Z,31.2
2018-08-02T22:40:05.024Z,31.2
2018-08-02T22:42:04.768Z,31.2
2018-08-02T22:44:08.047Z,31.2
2018-08-02T22:46:04.805Z,31.1
2018-08-02T22:48:05.583Z,31.2
2018-08-02T22:50:05.290Z,31.2
2018-08-02T22:52:05.049Z,31.1
2018-08-02T22:54:05.329Z,31.1
2018-08-02T22:56:05.011Z,31.1
2018-08-02T22:58:04.736Z,31.1
2018-08-02T23:00:05.447Z,31.1
2018-08-02T23:02:07.621Z,31
2018-08-02T23:04:04.848Z,31
2018-08-02T23:06:07.617Z,31
2018-08-02T23:08:05.437Z,31
2018-08-02T23:10:05.170Z,31
2018-08-02T23:12:05.487Z,31
2018-08-02T23:14:05.249Z,31
2018-08-02T23:16:04.932Z,31
2018-08-02T23:18:07.858Z,31
2018-08-02T23:20:05.622Z,31
2018-08-02T23:22:05.281Z,31
2018-08-02T23:24:05.000Z,30.9
2018-08-02T23:26:04.698Z,30.9
2018-08-02T23:28:05.476Z,30.9
2018-08-02T23:30:05.143Z,30.9
2018-08-02T23:32:07.373Z,30.9
2018-08-02T23:34:05.164Z,30.9
2018-08-02T23:36:04.829Z,30.8
2018-08-02T23:38:05.552Z,30.9
2018-08-02T23:40:05.312Z,30.8
2018-08-02T23:42:07.532Z,30.8
2018-08-02T23:44:12.853Z,30.8
2018-08-02T23:46:05.022Z,30.7
2018-08-02T23:48:07.740Z,30.7
2018-08-02T23:50:05.363Z,30.7
2018-08-02T23:52:04.627Z,30.7
2018-08-02T23:54:05.356Z,30.7
2018-08-02T23:56:07.608Z,30.7
2018-08-02T23:58:09.905Z,30.7
